createdAt,value
2022-09-16T00:00:08.395Z,25.12
2022-09-16T00:05:11.140Z,25.10
2022-09-16T00:10:14.250Z,25.00
2022-09-16T00:15:19.251Z,24.95
2022-09-16T00:20:21.957Z,24.90
2022-09-16T00:25:24.606Z,24.87
2022-09-16T00:30:28.655Z,24.84
2022-09-16T00:35:31.358Z,24.79
2022-09-16T00:40:34.223Z,24.70
2022-09-16T00:45:38.351Z,24.71
2022-09-16T00:50:46.975Z,24.66
2022-09-16T00:55:52.459Z,24.62
2022-09-16T01:00:56.775Z,24.58
2022-09-16T01:05:59.652Z,24.52
2022-09-16T01:11:02.514Z,24.48
2022-09-16T01:16:11.605Z,24.43
2022-09-16T01:21:23.573Z,24.39
2022-09-16T01:26:56.193Z,24.35
2022-09-16T01:32:05.187Z,24.33
2022-09-16T01:37:15.039Z,24.27
2022-09-16T01:42:30.870Z,24.23
2022-09-16T01:47:42.848Z,24.18
2022-09-16T01:52:55.889Z,24.13
2022-09-16T01:58:04.346Z,24.10
2022-09-16T02:03:12.717Z,24.07
2022-09-16T02:08:33.329Z,24.05
2022-09-16T02:13:40.489Z,24.03
2022-09-16T02:18:51.707Z,24.01
2022-09-16T02:23:59.812Z,23.98
2022-09-16T02:29:08.226Z,23.97
2022-09-16T02:34:16.579Z,23.92
2022-09-16T02:39:27.294Z,23.90
2022-09-16T02:44:30.578Z,23.87
2022-09-16T02:49:44.135Z,23.84
2022-09-16T02:54:53.930Z,23.82
2022-09-16T02:59:57.788Z,23.79
2022-09-16T03:05:03.479Z,23.77
2022-09-16T03:10:07.307Z,23.73
2022-09-16T03:15:32.052Z,23.72
2022-09-16T03:20:45.315Z,23.70
2022-09-16T03:25:58.231Z,23.70
2022-09-16T03:31:06.624Z,23.67
2022-09-16T03:36:15.230Z,23.63
2022-09-16T03:41:18.667Z,23.62
2022-09-16T03:46:21.356Z,23.59
2022-09-16T03:51:26.662Z,23.56
2022-09-16T03:56:29.360Z,23.54
2022-09-16T04:01:32.145Z,23.52
2022-09-16T04:06:36.918Z,23.49
2022-09-16T04:11:40.207Z,23.48
2022-09-16T04:16:45.167Z,23.45
2022-09-16T04:21:49.517Z,23.44
2022-09-16T04:26:52.174Z,23.42
2022-09-16T04:31:54.839Z,23.41
2022-09-16T04:36:58.993Z,23.38
2022-09-16T04:42:01.978Z,23.36
2022-09-16T04:47:04.697Z,23.33
2022-09-16T04:52:08.707Z,23.31
2022-09-16T04:57:11.393Z,23.29
2022-09-16T05:02:14.342Z,23.27
2022-09-16T05:07:18.441Z,23.25
2022-09-16T05:12:21.145Z,23.22
2022-09-16T05:17:49.456Z,23.20
2022-09-16T05:22:49.861Z,23.18
2022-09-16T05:27:52.489Z,23.16
2022-09-16T05:32:55.559Z,23.16
2022-09-16T05:37:59.675Z,23.15
2022-09-16T05:43:02.299Z,23.12
2022-09-16T05:48:05.050Z,23.11
2022-09-16T05:53:09.041Z,23.10
2022-09-16T05:58:11.733Z,23.10
2022-09-16T06:03:14.372Z,23.10
2022-09-16T06:08:18.377Z,23.09
2022-09-16T06:13:21.065Z,23.09
2022-09-16T06:18:25.507Z,23.09
2022-09-16T06:23:29.553Z,23.07
2022-09-16T06:28:32.432Z,23.07
2022-09-16T06:33:36.199Z,23.07
2022-09-16T06:38:41.097Z,23.06
2022-09-16T06:43:44.929Z,23.05
2022-09-16T06:48:50.140Z,23.05
2022-09-16T06:53:56.706Z,23.06
2022-09-16T06:58:59.581Z,23.05
2022-09-16T07:04:05.341Z,23.05
2022-09-16T07:09:10.171Z,23.05
2022-09-16T07:14:13.026Z,23.03
2022-09-16T07:19:15.659Z,23.04
2022-09-16T07:24:19.826Z,23.04
2022-09-16T07:29:22.493Z,23.01
2022-09-16T07:34:25.127Z,22.01
2022-09-16T07:39:29.348Z,22.14
2022-09-16T07:44:31.969Z,22.40
2022-09-16T07:49:34.645Z,22.51
2022-09-16T07:54:38.661Z,22.58
2022-09-16T07:59:41.312Z,22.61
2022-09-16T08:04:44.086Z,22.65
2022-09-16T08:09:50.732Z,22.68
2022-09-16T08:14:55.235Z,22.70
2022-09-16T08:19:57.900Z,22.71
2022-09-16T08:25:01.993Z,22.75
2022-09-16T08:30:05.801Z,22.76
2022-09-16T08:35:09.256Z,22.78
2022-09-16T08:45:32.038Z,22.83
2022-09-16T08:50:38.787Z,22.84
2022-09-16T08:55:47.087Z,22.85
2022-09-16T09:00:56.005Z,22.86
2022-09-16T09:06:00.763Z,22.87
2022-09-16T09:11:11.641Z,22.87
2022-09-16T09:16:23.930Z,22.90
2022-09-16T09:21:36.254Z,22.92
2022-09-16T09:26:49.922Z,22.94
2022-09-16T09:31:58.976Z,22.93
2022-09-16T09:37:19.670Z,22.92
2022-09-16T09:42:28.693Z,22.94
2022-09-16T09:47:35.162Z,22.94
2022-09-16T09:52:44.987Z,22.96
2022-09-16T09:58:17.691Z,22.97
2022-09-16T10:03:20.507Z,22.98
2022-09-16T10:08:28.523Z,23.01
2022-09-16T10:13:32.569Z,23.09
2022-09-16T10:18:35.486Z,23.18
2022-09-16T10:23:39.425Z,23.22
2022-09-16T10:28:55.328Z,23.19
2022-09-16T10:34:00.238Z,23.22
2022-09-16T10:39:05.576Z,23.29
2022-09-16T10:44:18.499Z,23.27
2022-09-16T10:49:26.401Z,23.31
2022-09-16T10:54:29.770Z,23.31
2022-09-16T10:59:33.884Z,23.32
2022-09-16T11:04:55.851Z,23.37
2022-09-16T11:10:12.159Z,23.42
2022-09-16T11:15:29.410Z,23.44
2022-09-16T11:20:55.111Z,23.47
2022-09-16T11:26:04.802Z,23.46
2022-09-16T11:31:18.823Z,23.46
2022-09-16T11:36:38.170Z,23.53
2022-09-16T11:41:48.307Z,23.59
2022-09-16T11:47:06.809Z,23.62
2022-09-16T11:52:26.467Z,23.61
2022-09-16T11:57:33.391Z,23.57
2022-09-16T12:02:42.219Z,23.50
2022-09-16T12:07:53.378Z,23.47
2022-09-16T12:13:01.526Z,23.44
2022-09-16T12:18:11.720Z,23.42
2022-09-16T12:23:19.590Z,23.39
2022-09-16T12:28:30.387Z,23.36
2022-09-16T12:33:40.415Z,23.35
2022-09-16T12:38:43.380Z,23.33
2022-09-16T12:44:35.877Z,23.33
2022-09-16T12:50:12.735Z,23.51
2022-09-16T12:55:38.656Z,23.65
2022-09-16T13:00:51.430Z,23.79
2022-09-16T13:05:59.023Z,23.88
2022-09-16T13:11:41.209Z,23.93
2022-09-16T13:16:33.940Z,23.97
2022-09-16T13:21:44.569Z,24.11
2022-09-16T13:26:47.309Z,24.23
2022-09-16T13:31:50.324Z,24.38
2022-09-16T13:36:54.507Z,24.50
2022-09-16T13:41:57.190Z,24.60
2022-09-16T13:47:17.507Z,24.65
2022-09-16T13:52:25.598Z,24.71
2022-09-16T13:57:38.602Z,24.65
2022-09-16T14:02:55.124Z,24.64
2022-09-16T14:08:08.283Z,24.58
2022-09-16T14:13:14.824Z,24.61
2022-09-16T14:18:21.089Z,24.61
2022-09-16T14:23:26.504Z,24.60
2022-09-16T14:28:29.899Z,24.61
2022-09-16T14:33:36.043Z,24.53
2022-09-16T14:38:46.596Z,24.57
2022-09-16T14:43:49.960Z,24.58
2022-09-16T14:48:52.956Z,24.59
2022-09-16T14:54:15.484Z,24.59
2022-09-16T14:59:18.926Z,24.60
2022-09-16T15:04:27.558Z,24.61
2022-09-16T15:09:40.315Z,24.60
2022-09-16T15:14:43.068Z,24.62
2022-09-16T15:19:51.435Z,24.65
2022-09-16T15:24:58.662Z,24.66
2022-09-16T15:30:05.779Z,24.76
2022-09-16T15:35:19.609Z,24.79
2022-09-16T15:40:31.984Z,24.88
2022-09-16T15:45:34.735Z,24.93
2022-09-16T15:50:43.578Z,24.99
2022-09-16T15:55:58.927Z,25.05
2022-09-16T16:01:04.521Z,25.12
2022-09-16T16:06:07.786Z,25.08
2022-09-16T16:11:14.025Z,25.13
2022-09-16T16:16:18.316Z,25.07
2022-09-16T16:21:21.240Z,25.13
2022-09-16T16:26:25.245Z,25.19
2022-09-16T16:31:28.155Z,25.39
2022-09-16T16:36:30.936Z,25.51
2022-09-16T16:41:35.012Z,25.60
2022-09-16T16:46:37.725Z,25.65
2022-09-16T16:51:40.445Z,25.68
2022-09-16T16:56:44.481Z,25.61
2022-09-16T17:01:49.232Z,25.55
2022-09-16T17:07:08.514Z,25.50
2022-09-16T17:12:18.036Z,25.48
2022-09-16T17:17:20.809Z,25.42
2022-09-16T17:22:23.652Z,25.30
2022-09-16T17:27:27.933Z,25.30
2022-09-16T17:32:30.641Z,25.31
2022-09-16T17:37:33.261Z,25.43
2022-09-16T17:42:37.354Z,25.36
2022-09-16T17:47:40.238Z,25.29
2022-09-16T17:52:42.912Z,25.33
2022-09-16T17:57:47.098Z,25.37
2022-09-16T18:02:49.776Z,25.39
2022-09-16T18:07:52.467Z,25.43
2022-09-16T18:12:58.050Z,25.41
2022-09-16T18:18:00.684Z,25.41
2022-09-16T18:23:03.370Z,25.45
2022-09-16T18:28:07.419Z,25.42
2022-09-16T18:33:10.154Z,25.47
2022-09-16T18:38:12.968Z,25.52
2022-09-16T18:43:17.129Z,25.50
2022-09-16T18:48:19.902Z,25.53
2022-09-16T18:53:22.532Z,25.48
2022-09-16T18:58:26.611Z,25.49
2022-09-16T19:03:29.427Z,25.55
2022-09-16T19:08:32.705Z,25.52
2022-09-16T19:13:37.160Z,25.58
2022-09-16T19:18:40.737Z,25.51
2022-09-16T19:23:43.634Z,25.50
2022-09-16T19:28:47.691Z,25.59
2022-09-16T19:33:50.434Z,25.49
2022-09-16T19:38:53.770Z,25.49
2022-09-16T19:43:59.385Z,25.53
2022-09-16T19:49:02.200Z,25.55
2022-09-16T19:54:05.018Z,25.49
2022-09-16T19:59:09.701Z,25.47
2022-09-16T20:04:12.329Z,25.44
2022-09-16T20:09:15.077Z,25.46
2022-09-16T20:14:20.820Z,25.42
2022-09-16T20:19:23.449Z,25.47
2022-09-16T20:24:26.581Z,25.52
2022-09-16T20:29:31.829Z,25.44
2022-09-16T20:34:34.541Z,25.45
2022-09-16T20:39:37.395Z,25.49
2022-09-16T20:44:41.381Z,25.50
2022-09-16T20:49:44.116Z,25.51
2022-09-16T20:54:46.997Z,25.48
2022-09-16T20:59:51.521Z,25.57
2022-09-16T21:04:54.152Z,25.56
2022-09-16T21:09:56.917Z,25.51
2022-09-16T21:15:00.872Z,25.47
2022-09-16T21:20:03.934Z,25.50
2022-09-16T21:25:07.314Z,25.51
2022-09-16T21:30:13.622Z,25.53
2022-09-16T21:35:17.087Z,25.45
2022-09-16T21:40:23.504Z,25.49
2022-09-16T21:45:27.627Z,25.54
2022-09-16T21:50:30.282Z,25.52
2022-09-16T21:55:33.058Z,25.57
2022-09-16T22:00:38.276Z,25.53
2022-09-16T22:05:40.987Z,25.54
2022-09-16T22:10:43.635Z,25.53
2022-09-16T22:15:52.074Z,25.52
2022-09-16T22:20:58.544Z,25.55
2022-09-16T22:26:05.146Z,25.55
2022-09-16T22:31:11.397Z,25.58
2022-09-16T22:36:16.302Z,25.63
2022-09-16T22:41:19.471Z,25.61
2022-09-16T22:46:24.964Z,25.59
2022-09-16T22:51:29.055Z,25.62
2022-09-16T22:56:33.486Z,25.54
2022-09-16T23:01:39.965Z,25.54
2022-09-16T23:06:43.204Z,25.58
2022-09-16T23:11:46.483Z,25.60
2022-09-16T23:16:50.573Z,25.59
2022-09-16T23:21:53.211Z,25.59
2022-09-16T23:26:55.943Z,25.61
2022-09-16T23:32:02.718Z,25.65
2022-09-16T23:37:05.430Z,25.60
2022-09-16T23:42:08.698Z,25.58
2022-09-16T23:47:12.730Z,25.53
2022-09-16T23:52:15.646Z,25.58
2022-09-16T23:57:18.362Z,25.55
